Crawfordsville, Indiana
Current Conditions -  °F | °C
As of 7:55 PM on Wednesday 22 Oct 2014 (Local Time) from KFKR Reporting Station
Clear Clear  
Wind Chill: 43°   Ceiling: Unl
Heat Index: 43°   Visibility: 10mi
Dew Point: 38°   Wind: 3mph
Humidity: 84%   Direction: 20°NNE
Pressure: 30.28"   Gusts: NA
Location:  40.04°N, 86.9°W
Report Text: KFKR 222355Z AUTO 02003KT 10SM CLR 06/04 A3028 RMK AO2 T00610036 10150 20060
Loading
Personal Weather Stations






























Interactive Weather Map
Tropical Storm Tracking
New forecast layout! Learn more

10-Day Weather Forecast

Advertisements
Track Severe Weather on mobile